sensor_id;sensor_type;location;lat;lon;timestamp;pressure;altitude;pressure_sealevel;temperature;humidity
71948;BME280;63257;55.082;38.772;2023-05-20T00:02:20;100838.97;;;9.02;65.29
71948;BME280;63257;55.082;38.772;2023-05-20T00:04:46;100857.34;;;9.04;65.21
71948;BME280;63257;55.082;38.772;2023-05-20T00:07:12;100855.72;;;8.99;66.30
71948;BME280;63257;55.082;38.772;2023-05-20T00:09:38;100850.63;;;8.95;66.39
71948;BME280;63257;55.082;38.772;2023-05-20T00:12:05;100837.84;;;8.82;66.62
71948;BME280;63257;55.082;38.772;2023-05-20T00:14:30;100835.44;;;8.75;66.80
71948;BME280;63257;55.082;38.772;2023-05-20T00:16:56;100846.84;;;8.75;67.24
71948;BME280;63257;55.082;38.772;2023-05-20T00:19:22;100834.97;;;8.62;67.67
71948;BME280;63257;55.082;38.772;2023-05-20T00:21:48;100849.75;;;8.66;67.29
71948;BME280;63257;55.082;38.772;2023-05-20T00:24:14;100833.44;;;8.55;67.24
71948;BME280;63257;55.082;38.772;2023-05-20T00:26:40;100846.59;;;8.55;67.33
71948;BME280;63257;55.082;38.772;2023-05-20T00:29:05;100844.09;;;8.50;67.62
71948;BME280;63257;55.082;38.772;2023-05-20T00:31:31;100813.19;;;8.27;67.84
71948;BME280;63257;55.082;38.772;2023-05-20T00:33:57;100833.28;;;8.29;68.05
71948;BME280;63257;55.082;38.772;2023-05-20T00:36:23;100840.00;;;8.40;68.19
71948;BME280;63257;55.082;38.772;2023-05-20T00:38:49;100841.94;;;8.33;68.35
71948;BME280;63257;55.082;38.772;2023-05-20T00:41:15;100841.13;;;8.31;69.25
71948;BME280;63257;55.082;38.772;2023-05-20T00:43:41;100844.78;;;8.25;69.16
71948;BME280;63257;55.082;38.772;2023-05-20T00:46:07;100842.25;;;8.22;68.97
71948;BME280;63257;55.082;38.772;2023-05-20T00:48:42;100822.72;;;8.01;69.64
71948;BME280;63257;55.082;38.772;2023-05-20T00:51:10;100833.94;;;8.06;68.59
71948;BME280;63257;55.082;38.772;2023-05-20T00:53:36;100845.25;;;8.10;69.41
71948;BME280;63257;55.082;38.772;2023-05-20T00:56:03;100849.59;;;8.11;69.79
71948;BME280;63257;55.082;38.772;2023-05-20T00:58:30;100839.19;;;8.08;69.22
71948;BME280;63257;55.082;38.772;2023-05-20T01:00:57;100842.81;;;8.02;69.56
71948;BME280;63257;55.082;38.772;2023-05-20T01:03:22;100838.53;;;8.00;69.76
71948;BME280;63257;55.082;38.772;2023-05-20T01:05:48;100825.00;;;7.82;69.83
71948;BME280;63257;55.082;38.772;2023-05-20T01:08:14;100842.28;;;7.91;69.27
71948;BME280;63257;55.082;38.772;2023-05-20T01:10:41;100863.25;;;7.92;69.68
71948;BME280;63257;55.082;38.772;2023-05-20T01:13:15;100854.56;;;7.90;69.88
71948;BME280;63257;55.082;38.772;2023-05-20T01:15:44;100853.97;;;7.80;69.88
71948;BME280;63257;55.082;38.772;2023-05-20T01:18:13;100846.84;;;7.84;70.36
71948;BME280;63257;55.082;38.772;2023-05-20T01:20:48;100834.97;;;7.71;69.90
71948;BME280;63257;55.082;38.772;2023-05-20T01:23:15;100858.38;;;7.78;70.31
71948;BME280;63257;55.082;38.772;2023-05-20T01:25:41;100853.31;;;7.72;70.65
71948;BME280;63257;55.082;38.772;2023-05-20T01:28:07;100853.31;;;7.72;69.74
71948;BME280;63257;55.082;38.772;2023-05-20T01:30:37;100856.78;;;7.73;70.31
71948;BME280;63257;55.082;38.772;2023-05-20T01:33:08;100860.44;;;7.67;70.37
71948;BME280;63257;55.082;38.772;2023-05-20T01:35:36;100835.28;;;7.57;70.88
71948;BME280;63257;55.082;38.772;2023-05-20T01:38:04;100856.97;;;7.67;70.53
71948;BME280;63257;55.082;38.772;2023-05-20T01:40:32;100850.06;;;7.62;70.35
71948;BME280;63257;55.082;38.772;2023-05-20T01:42:58;100864.91;;;7.63;71.07
71948;BME280;63257;55.082;38.772;2023-05-20T01:45:25;100864.06;;;7.63;70.74
71948;BME280;63257;55.082;38.772;2023-05-20T01:47:52;100836.47;;;7.46;71.05
71948;BME280;63257;55.082;38.772;2023-05-20T01:50:18;100863.25;;;7.59;71.26
71948;BME280;63257;55.082;38.772;2023-05-20T01:52:43;100865.97;;;7.56;70.70
71948;BME280;63257;55.082;38.772;2023-05-20T01:55:10;100864.16;;;7.60;70.97
71948;BME280;63257;55.082;38.772;2023-05-20T01:57:36;100855.47;;;7.56;70.80
71948;BME280;63257;55.082;38.772;2023-05-20T02:00:03;100860.50;;;7.66;70.57
71948;BME280;63257;55.082;38.772;2023-05-20T02:02:39;100857.81;;;7.67;70.73
71948;BME280;63257;55.082;38.772;2023-05-20T02:05:08;100834.50;;;7.55;70.83
71948;BME280;63257;55.082;38.772;2023-05-20T02:07:34;100828.25;;;7.59;70.39
71948;BME280;63257;55.082;38.772;2023-05-20T02:10:00;100837.78;;;7.63;71.05
71948;BME280;63257;55.082;38.772;2023-05-20T02:12:33;100829.03;;;7.62;70.46
71948;BME280;63257;55.082;38.772;2023-05-20T02:14:59;100848.66;;;7.82;69.55
71948;BME280;63257;55.082;38.772;2023-05-20T02:17:25;100847.72;;;7.85;70.23
71948;BME280;63257;55.082;38.772;2023-05-20T02:20:11;100794.28;;;7.51;70.10
71948;BME280;63257;55.082;38.772;2023-05-20T02:22:38;100823.38;;;7.78;69.68
71948;BME280;63257;55.082;38.772;2023-05-20T02:25:04;100834.63;;;7.83;69.40
71948;BME280;63257;55.082;38.772;2023-05-20T02:27:30;100850.84;;;7.97;69.54
71948;BME280;63257;55.082;38.772;2023-05-20T02:29:57;100848.97;;;8.03;68.88
71948;BME280;63257;55.082;38.772;2023-05-20T02:32:23;100854.81;;;8.12;68.89
71948;BME280;63257;55.082;38.772;2023-05-20T02:34:53;100853.13;;;8.10;68.69
71948;BME280;63257;55.082;38.772;2023-05-20T02:37:20;100853.03;;;8.13;68.62
71948;BME280;63257;55.082;38.772;2023-05-20T02:39:46;100850.19;;;8.21;68.21
71948;BME280;63257;55.082;38.772;2023-05-20T02:42:14;100843.03;;;8.26;68.22
71948;BME280;63257;55.082;38.772;2023-05-20T02:44:40;100835.00;;;8.30;67.76
71948;BME280;63257;55.082;38.772;2023-05-20T02:47:06;100845.13;;;8.44;67.69
71948;BME280;63257;55.082;38.772;2023-05-20T02:49:32;100840.56;;;8.51;67.06
71948;BME280;63257;55.082;38.772;2023-05-20T02:51:58;100832.63;;;8.53;67.26
71948;BME280;63257;55.082;38.772;2023-05-20T02:54:24;100828.88;;;8.61;66.86
71948;BME280;63257;55.082;38.772;2023-05-20T02:56:50;100847.31;;;8.88;66.78
71948;BME280;63257;55.082;38.772;2023-05-20T02:59:16;100846.03;;;9.02;66.31
71948;BME280;63257;55.082;38.772;2023-05-20T03:01:42;100842.16;;;9.12;65.31
71948;BME280;63257;55.082;38.772;2023-05-20T03:04:08;100852.03;;;9.32;64.63
71948;BME280;63257;55.082;38.772;2023-05-20T03:06:35;100844.50;;;9.46;64.77
71948;BME280;63257;55.082;38.772;2023-05-20T03:09:02;100836.59;;;9.48;63.95
71948;BME280;63257;55.082;38.772;2023-05-20T03:11:29;100852.06;;;9.57;63.75
71948;BME280;63257;55.082;38.772;2023-05-20T03:13:55;100807.09;;;9.37;64.26
71948;BME280;63257;55.082;38.772;2023-05-20T03:16:21;100849.69;;;9.75;63.79
71948;BME280;63257;55.082;38.772;2023-05-20T03:18:46;100846.69;;;9.85;63.47
71948;BME280;63257;55.082;38.772;2023-05-20T03:21:12;100856.66;;;10.01;63.09
71948;BME280;63257;55.082;38.772;2023-05-20T03:23:38;100849.50;;;10.05;62.73
71948;BME280;63257;55.082;38.772;2023-05-20T03:26:04;100849.06;;;10.17;62.19
71948;BME280;63257;55.082;38.772;2023-05-20T03:28:32;100841.09;;;10.18;62.28
71948;BME280;63257;55.082;38.772;2023-05-20T03:30:59;100853.88;;;10.29;61.62
71948;BME280;63257;55.082;38.772;2023-05-20T03:33:28;100823.06;;;10.06;61.71
71948;BME280;63257;55.082;38.772;2023-05-20T03:35:54;100844.81;;;10.13;62.81
71948;BME280;63257;55.082;38.772;2023-05-20T03:38:20;100838.91;;;10.06;62.65
71948;BME280;63257;55.082;38.772;2023-05-20T03:40:46;100843.41;;;10.02;62.57
71948;BME280;63257;55.082;38.772;2023-05-20T03:43:12;100817.78;;;9.82;63.47
71948;BME280;63257;55.082;38.772;2023-05-20T03:45:38;100834.84;;;9.97;63.61
71948;BME280;63257;55.082;38.772;2023-05-20T03:48:15;100834.78;;;10.23;63.71
71948;BME280;63257;55.082;38.772;2023-05-20T03:50:42;100848.88;;;10.22;63.21
71948;BME280;63257;55.082;38.772;2023-05-20T03:53:08;100845.22;;;10.26;63.24
71948;BME280;63257;55.082;38.772;2023-05-20T03:55:37;100837.03;;;10.10;63.83
71948;BME280;63257;55.082;38.772;2023-05-20T03:58:04;100838.16;;;10.02;63.93
71948;BME280;63257;55.082;38.772;2023-05-20T04:00:31;100834.16;;;10.16;63.85
71948;BME280;63257;55.082;38.772;2023-05-20T04:02:58;100846.25;;;10.22;63.83
71948;BME280;63257;55.082;38.772;2023-05-20T04:05:24;100814.97;;;10.11;63.79
71948;BME280;63257;55.082;38.772;2023-05-20T04:07:52;100844.72;;;10.40;64.20
71948;BME280;63257;55.082;38.772;2023-05-20T04:10:20;100843.09;;;10.35;63.85
71948;BME280;63257;55.082;38.772;2023-05-20T04:12:46;100840.47;;;10.35;63.78
71948;BME280;63257;55.082;38.772;2023-05-20T04:15:12;100814.44;;;10.26;63.94
71948;BME280;63257;55.082;38.772;2023-05-20T04:17:51;100823.72;;;10.37;63.82
71948;BME280;63257;55.082;38.772;2023-05-20T04:20:17;100838.34;;;10.45;64.39
71948;BME280;63257;55.082;38.772;2023-05-20T04:22:44;100837.25;;;10.51;64.20
71948;BME280;63257;55.082;38.772;2023-05-20T04:25:10;100819.63;;;10.51;64.00
71948;BME280;63257;55.082;38.772;2023-05-20T04:27:36;100827.81;;;10.67;62.87
71948;BME280;63257;55.082;38.772;2023-05-20T04:30:04;100819.09;;;10.65;64.16
71948;BME280;63257;55.082;38.772;2023-05-20T04:32:33;100821.19;;;10.79;62.73
71948;BME280;63257;55.082;38.772;2023-05-20T04:34:59;100821.84;;;10.84;63.21
71948;BME280;63257;55.082;38.772;2023-05-20T04:37:31;100821.72;;;10.88;62.79
71948;BME280;63257;55.082;38.772;2023-05-20T04:39:58;100805.03;;;10.87;63.16
71948;BME280;63257;55.082;38.772;2023-05-20T04:42:24;100785.44;;;10.71;63.18
71948;BME280;63257;55.082;38.772;2023-05-20T04:44:50;100822.13;;;10.99;62.50
71948;BME280;63257;55.082;38.772;2023-05-20T04:47:16;100812.94;;;11.09;62.96
71948;BME280;63257;55.082;38.772;2023-05-20T04:49:42;100806.66;;;11.12;62.50
71948;BME280;63257;55.082;38.772;2023-05-20T04:52:08;100799.06;;;11.25;62.41
71948;BME280;63257;55.082;38.772;2023-05-20T04:54:34;100792.25;;;11.19;62.57
71948;BME280;63257;55.082;38.772;2023-05-20T04:57:00;100794.00;;;11.41;62.48
71948;BME280;63257;55.082;38.772;2023-05-20T04:59:26;100784.78;;;11.29;61.89
71948;BME280;63257;55.082;38.772;2023-05-20T05:01:51;100803.69;;;11.40;61.58
71948;BME280;63257;55.082;38.772;2023-05-20T05:04:17;100808.41;;;11.33;61.09
71948;BME280;63257;55.082;38.772;2023-05-20T05:06:43;100801.09;;;11.38;61.80
71948;BME280;63257;55.082;38.772;2023-05-20T05:09:10;100798.59;;;11.35;60.82
71948;BME280;63257;55.082;38.772;2023-05-20T05:11:39;100781.47;;;11.24;60.82
71948;BME280;63257;55.082;38.772;2023-05-20T05:14:05;100806.47;;;11.37;61.23
71948;BME280;63257;55.082;38.772;2023-05-20T05:16:31;100790.34;;;11.43;61.65
71948;BME280;63257;55.082;38.772;2023-05-20T05:18:57;100781.47;;;11.44;61.70
71948;BME280;63257;55.082;38.772;2023-05-20T05:21:23;100779.66;;;11.46;61.26
71948;BME280;63257;55.082;38.772;2023-05-20T05:23:49;100791.50;;;11.57;61.29
71948;BME280;63257;55.082;38.772;2023-05-20T05:26:15;100789.47;;;11.63;60.80
71948;BME280;63257;55.082;38.772;2023-05-20T05:28:42;100764.81;;;11.63;60.27
71948;BME280;63257;55.082;38.772;2023-05-20T05:31:08;100786.50;;;11.71;60.55
71948;BME280;63257;55.082;38.772;2023-05-20T05:33:35;100766.31;;;11.68;60.27
71948;BME280;63257;55.082;38.772;2023-05-20T05:36:01;100767.91;;;11.73;60.65
71948;BME280;63257;55.082;38.772;2023-05-20T05:38:28;100773.53;;;12.04;60.30
71948;BME280;63257;55.082;38.772;2023-05-20T05:40:54;100778.06;;;12.02;59.40
71948;BME280;63257;55.082;38.772;2023-05-20T05:43:21;100778.41;;;12.14;59.52
71948;BME280;63257;55.082;38.772;2023-05-20T05:45:48;100789.81;;;12.16;59.49
71948;BME280;63257;55.082;38.772;2023-05-20T05:48:14;100770.41;;;12.15;58.52
71948;BME280;63257;55.082;38.772;2023-05-20T05:50:44;100737.78;;;11.96;58.49
71948;BME280;63257;55.082;38.772;2023-05-20T05:53:12;100768.66;;;12.33;58.88
71948;BME280;63257;55.082;38.772;2023-05-20T05:55:40;100778.81;;;12.43;57.52
71948;BME280;63257;55.082;38.772;2023-05-20T05:58:06;100785.53;;;12.50;57.63
71948;BME280;63257;55.082;38.772;2023-05-20T06:00:32;100771.69;;;12.62;58.26
71948;BME280;63257;55.082;38.772;2023-05-20T06:02:58;100751.47;;;12.61;57.38
71948;BME280;63257;55.082;38.772;2023-05-20T06:05:31;100787.19;;;12.52;56.89
71948;BME280;63257;55.082;38.772;2023-05-20T06:07:57;100784.25;;;12.59;57.76
71948;BME280;63257;55.082;38.772;2023-05-20T06:10:24;100742.16;;;12.52;57.21
71948;BME280;63257;55.082;38.772;2023-05-20T06:12:50;100781.41;;;12.81;56.49
71948;BME280;63257;55.082;38.772;2023-05-20T06:15:16;100774.59;;;12.94;56.30
71948;BME280;63257;55.082;38.772;2023-05-20T06:17:43;100772.53;;;12.99;55.96
71948;BME280;63257;55.082;38.772;2023-05-20T06:20:09;100779.03;;;13.29;56.09
71948;BME280;63257;55.082;38.772;2023-05-20T06:22:35;100783.38;;;13.30;54.06
71948;BME280;63257;55.082;38.772;2023-05-20T06:25:01;100769.75;;;13.55;54.14
71948;BME280;63257;55.082;38.772;2023-05-20T06:27:30;100774.09;;;13.89;53.63
71948;BME280;63257;55.082;38.772;2023-05-20T06:29:56;100771.28;;;14.24;52.47
71948;BME280;63257;55.082;38.772;2023-05-20T06:32:23;100737.13;;;13.86;52.03
71948;BME280;63257;55.082;38.772;2023-05-20T06:34:50;100774.41;;;14.17;52.73
71948;BME280;63257;55.082;38.772;2023-05-20T06:37:17;100782.78;;;14.41;52.77
71948;BME280;63257;55.082;38.772;2023-05-20T06:39:43;100778.94;;;14.47;52.15
71948;BME280;63257;55.082;38.772;2023-05-20T06:42:09;100782.63;;;14.44;51.10
71948;BME280;63257;55.082;38.772;2023-05-20T06:44:35;100780.91;;;14.59;51.39
71948;BME280;63257;55.082;38.772;2023-05-20T06:47:31;100784.09;;;14.50;50.64
71948;BME280;63257;55.082;38.772;2023-05-20T06:50:25;100783.63;;;14.89;50.52
71948;BME280;63257;55.082;38.772;2023-05-20T06:52:53;100773.63;;;15.09;50.28
71948;BME280;63257;55.082;38.772;2023-05-20T06:55:20;100769.22;;;14.93;48.90
71948;BME280;63257;55.082;38.772;2023-05-20T06:57:46;100786.69;;;14.67;49.92
71948;BME280;63257;55.082;38.772;2023-05-20T07:00:13;100783.97;;;14.83;50.08
71948;BME280;63257;55.082;38.772;2023-05-20T07:02:41;100784.13;;;14.96;49.90
71948;BME280;63257;55.082;38.772;2023-05-20T07:05:09;100778.31;;;14.89;50.51
71948;BME280;63257;55.082;38.772;2023-05-20T07:07:38;100793.59;;;15.16;50.27
71948;BME280;63257;55.082;38.772;2023-05-20T07:10:09;100774.44;;;15.25;48.73
71948;BME280;63257;55.082;38.772;2023-05-20T07:12:35;100766.75;;;15.21;48.89
71948;BME280;63257;55.082;38.772;2023-05-20T07:15:01;100764.13;;;15.50;49.12
71948;BME280;63257;55.082;38.772;2023-05-20T07:17:29;100765.25;;;15.01;49.46
71948;BME280;63257;55.082;38.772;2023-05-20T07:19:55;100757.56;;;14.96;49.28
71948;BME280;63257;55.082;38.772;2023-05-20T07:22:21;100767.28;;;14.81;49.83
71948;BME280;63257;55.082;38.772;2023-05-20T07:24:55;100754.78;;;15.28;49.55
71948;BME280;63257;55.082;38.772;2023-05-20T07:27:21;100760.41;;;15.38;49.54
71948;BME280;63257;55.082;38.772;2023-05-20T07:34:06;100749.31;;;16.03;47.94
71948;BME280;63257;55.082;38.772;2023-05-20T07:36:32;100763.09;;;15.96;47.46
71948;BME280;63257;55.082;38.772;2023-05-20T07:39:03;100758.56;;;15.38;48.09
71948;BME280;63257;55.082;38.772;2023-05-20T07:41:30;100756.50;;;15.43;49.23
71948;BME280;63257;55.082;38.772;2023-05-20T07:43:56;100743.97;;;15.60;47.66
71948;BME280;63257;55.082;38.772;2023-05-20T07:46:21;100765.66;;;15.97;48.36
71948;BME280;63257;55.082;38.772;2023-05-20T07:56:36;100733.53;;;15.57;48.07
71948;BME280;63257;55.082;38.772;2023-05-20T07:59:04;100742.84;;;15.78;47.65
71948;BME280;63257;55.082;38.772;2023-05-20T08:01:36;100725.56;;;15.86;46.67
71948;BME280;63257;55.082;38.772;2023-05-20T08:04:04;100730.47;;;15.92;46.72
71948;BME280;63257;55.082;38.772;2023-05-20T08:06:31;100742.09;;;15.91;46.36
71948;BME280;63257;55.082;38.772;2023-05-20T08:08:57;100746.16;;;16.11;45.94
71948;BME280;63257;55.082;38.772;2023-05-20T08:11:32;100735.03;;;16.19;45.93
71948;BME280;63257;55.082;38.772;2023-05-20T08:14:01;100742.56;;;15.98;45.74
71948;BME280;63257;55.082;38.772;2023-05-20T08:16:30;100720.19;;;16.00;45.81
71948;BME280;63257;55.082;38.772;2023-05-20T08:18:55;100729.44;;;16.09;45.74
71948;BME280;63257;55.082;38.772;2023-05-20T08:21:24;100748.34;;;16.19;45.54
71948;BME280;63257;55.082;38.772;2023-05-20T08:23:50;100701.53;;;16.15;44.68
71948;BME280;63257;55.082;38.772;2023-05-20T08:30:53;100746.88;;;17.22;44.13
71948;BME280;63257;55.082;38.772;2023-05-20T08:33:19;100730.31;;;17.04;42.72
71948;BME280;63257;55.082;38.772;2023-05-20T08:36:06;100736.03;;;16.58;44.21
71948;BME280;63257;55.082;38.772;2023-05-20T08:38:33;100732.41;;;16.59;44.57
71948;BME280;63257;55.082;38.772;2023-05-20T08:40:58;100730.16;;;16.25;44.01
71948;BME280;63257;55.082;38.772;2023-05-20T08:43:25;100708.97;;;16.09;44.76
71948;BME280;63257;55.082;38.772;2023-05-20T08:45:52;100731.78;;;16.28;44.20
71948;BME280;63257;55.082;38.772;2023-05-20T08:48:21;100734.13;;;16.33;44.46
71948;BME280;63257;55.082;38.772;2023-05-20T08:50:50;100728.44;;;16.52;43.49
71948;BME280;63257;55.082;38.772;2023-05-20T08:53:17;100712.75;;;16.47;42.50
71948;BME280;63257;55.082;38.772;2023-05-20T08:56:02;100695.25;;;16.43;41.64
71948;BME280;63257;55.082;38.772;2023-05-20T08:58:30;100721.28;;;16.52;42.13
71948;BME280;63257;55.082;38.772;2023-05-20T09:00:57;100727.84;;;16.61;42.83
71948;BME280;63257;55.082;38.772;2023-05-20T09:03:23;100727.16;;;16.44;41.43
71948;BME280;63257;55.082;38.772;2023-05-20T09:05:52;100715.56;;;16.58;42.15
71948;BME280;63257;55.082;38.772;2023-05-20T09:08:22;100721.03;;;16.70;41.62
71948;BME280;63257;55.082;38.772;2023-05-20T09:10:51;100717.25;;;16.59;41.31
71948;BME280;63257;55.082;38.772;2023-05-20T09:13:17;100729.28;;;16.79;40.68
71948;BME280;63257;55.082;38.772;2023-05-20T09:15:43;100717.75;;;16.79;41.38
71948;BME280;63257;55.082;38.772;2023-05-20T09:18:08;100704.53;;;16.77;42.49
71948;BME280;63257;55.082;38.772;2023-05-20T09:20:35;100723.47;;;17.00;42.54
71948;BME280;63257;55.082;38.772;2023-05-20T09:23:05;100709.78;;;16.52;42.66
71948;BME280;63257;55.082;38.772;2023-05-20T09:25:31;100718.59;;;16.39;43.77
71948;BME280;63257;55.082;38.772;2023-05-20T09:27:58;100733.88;;;16.50;44.24
71948;BME280;63257;55.082;38.772;2023-05-20T09:30:24;100721.66;;;16.33;44.05
71948;BME280;63257;55.082;38.772;2023-05-20T09:32:57;100735.03;;;16.46;43.76
71948;BME280;63257;55.082;38.772;2023-05-20T09:35:24;100737.25;;;16.39;44.23
71948;BME280;63257;55.082;38.772;2023-05-20T09:37:57;100740.53;;;16.43;43.72
71948;BME280;63257;55.082;38.772;2023-05-20T09:40:25;100719.41;;;16.54;43.34
71948;BME280;63257;55.082;38.772;2023-05-20T09:43:00;100734.16;;;16.73;42.44
71948;BME280;63257;55.082;38.772;2023-05-20T09:45:26;100728.59;;;16.90;41.36
71948;BME280;63257;55.082;38.772;2023-05-20T09:47:56;100726.97;;;16.60;40.88
71948;BME280;63257;55.082;38.772;2023-05-20T09:50:23;100730.53;;;16.74;41.05
71948;BME280;63257;55.082;38.772;2023-05-20T09:52:51;100742.91;;;17.02;41.58
71948;BME280;63257;55.082;38.772;2023-05-20T09:55:20;100733.22;;;17.27;41.28
71948;BME280;63257;55.082;38.772;2023-05-20T09:57:47;100725.56;;;17.35;41.07
71948;BME280;63257;55.082;38.772;2023-05-20T10:00:14;100745.38;;;17.70;41.33
71948;BME280;63257;55.082;38.772;2023-05-20T10:02:44;100753.19;;;17.60;41.44
71948;BME280;63257;55.082;38.772;2023-05-20T10:05:22;100753.41;;;17.44;41.26
71948;BME280;63257;55.082;38.772;2023-05-20T10:10:50;100748.06;;;17.44;40.02
71948;BME280;63257;55.082;38.772;2023-05-20T10:21:37;100743.31;;;16.96;41.51
71948;BME280;63257;55.082;38.772;2023-05-20T10:24:09;100754.88;;;17.22;41.99
71948;BME280;63257;55.082;38.772;2023-05-20T10:26:40;100722.31;;;17.17;41.76
71948;BME280;63257;55.082;38.772;2023-05-20T10:29:17;100764.47;;;17.25;41.87
71948;BME280;63257;55.082;38.772;2023-05-20T10:31:44;100760.84;;;17.39;41.59
71948;BME280;63257;55.082;38.772;2023-05-20T10:34:14;100720.72;;;17.02;41.45
71948;BME280;63257;55.082;38.772;2023-05-20T10:37:00;100741.97;;;17.16;40.66
71948;BME280;63257;55.082;38.772;2023-05-20T10:39:28;100763.41;;;17.27;40.53
71948;BME280;63257;55.082;38.772;2023-05-20T10:42:10;100744.50;;;17.69;40.03
71948;BME280;63257;55.082;38.772;2023-05-20T10:44:45;100743.03;;;17.65;40.27
71948;BME280;63257;55.082;38.772;2023-05-20T10:47:12;100727.47;;;17.33;40.56
71948;BME280;63257;55.082;38.772;2023-05-20T10:49:45;100760.25;;;16.95;39.83
71948;BME280;63257;55.082;38.772;2023-05-20T10:52:12;100745.47;;;16.76;41.28
71948;BME280;63257;55.082;38.772;2023-05-20T10:54:46;100758.22;;;16.58;41.99
71948;BME280;63257;55.082;38.772;2023-05-20T10:57:12;100757.44;;;16.56;42.88
71948;BME280;63257;55.082;38.772;2023-05-20T10:59:39;100767.38;;;16.54;43.29
71948;BME280;63257;55.082;38.772;2023-05-20T11:02:07;100769.38;;;16.51;43.92
71948;BME280;63257;55.082;38.772;2023-05-20T11:04:36;100763.22;;;16.63;43.84
71948;BME280;63257;55.082;38.772;2023-05-20T11:07:02;100772.16;;;16.35;44.08
71948;BME280;63257;55.082;38.772;2023-05-20T11:09:28;100748.72;;;16.13;43.76
71948;BME280;63257;55.082;38.772;2023-05-20T11:11:55;100750.91;;;16.06;43.57
71948;BME280;63257;55.082;38.772;2023-05-20T11:14:23;100772.88;;;16.09;44.34
71948;BME280;63257;55.082;38.772;2023-05-20T11:16:55;100774.88;;;16.20;44.40
71948;BME280;63257;55.082;38.772;2023-05-20T11:19:21;100777.78;;;16.30;44.63
71948;BME280;63257;55.082;38.772;2023-05-20T11:21:47;100773.50;;;16.42;44.64
71948;BME280;63257;55.082;38.772;2023-05-20T11:24:22;100777.44;;;16.22;45.24
71948;BME280;63257;55.082;38.772;2023-05-20T11:26:49;100779.28;;;15.92;46.00
71948;BME280;63257;55.082;38.772;2023-05-20T11:29:16;100785.66;;;15.90;46.05
71948;BME280;63257;55.082;38.772;2023-05-20T11:31:42;100790.88;;;15.91;45.69
71948;BME280;63257;55.082;38.772;2023-05-20T11:34:08;100793.78;;;15.72;45.67
71948;BME280;63257;55.082;38.772;2023-05-20T11:36:33;100775.16;;;15.58;45.95
71948;BME280;63257;55.082;38.772;2023-05-20T11:39:11;100790.25;;;15.57;46.32
71948;BME280;63257;55.082;38.772;2023-05-20T11:41:41;100801.28;;;15.66;46.25
71948;BME280;63257;55.082;38.772;2023-05-20T11:44:11;100788.25;;;15.61;46.37
71948;BME280;63257;55.082;38.772;2023-05-20T11:46:42;100789.53;;;15.84;46.48
71948;BME280;63257;55.082;38.772;2023-05-20T11:49:08;100792.59;;;15.92;46.44
71948;BME280;63257;55.082;38.772;2023-05-20T11:51:36;100792.66;;;16.05;46.17
71948;BME280;63257;55.082;38.772;2023-05-20T11:54:04;100799.44;;;15.97;46.12
71948;BME280;63257;55.082;38.772;2023-05-20T11:56:32;100786.75;;;16.00;46.13
71948;BME280;63257;55.082;38.772;2023-05-20T11:58:59;100787.25;;;15.92;46.39
71948;BME280;63257;55.082;38.772;2023-05-20T12:01:26;100765.09;;;15.77;45.87
71948;BME280;63257;55.082;38.772;2023-05-20T12:03:52;100783.72;;;15.92;46.44
71948;BME280;63257;55.082;38.772;2023-05-20T12:06:18;100777.72;;;16.03;45.99
71948;BME280;63257;55.082;38.772;2023-05-20T12:08:44;100786.75;;;16.15;45.79
71948;BME280;63257;55.082;38.772;2023-05-20T12:11:12;100782.00;;;16.20;45.10
71948;BME280;63257;55.082;38.772;2023-05-20T12:13:39;100793.03;;;16.28;45.12
71948;BME280;63257;55.082;38.772;2023-05-20T12:16:08;100774.97;;;16.04;44.73
71948;BME280;63257;55.082;38.772;2023-05-20T12:18:33;100786.97;;;16.11;44.88
71948;BME280;63257;55.082;38.772;2023-05-20T12:21:00;100774.97;;;16.19;43.58
71948;BME280;63257;55.082;38.772;2023-05-20T12:23:26;100796.84;;;16.24;43.42
71948;BME280;63257;55.082;38.772;2023-05-20T12:25:53;100777.34;;;16.09;43.95
71948;BME280;63257;55.082;38.772;2023-05-20T12:28:20;100779.34;;;16.20;44.26
71948;BME280;63257;55.082;38.772;2023-05-20T12:30:46;100787.41;;;16.18;44.61
71948;BME280;63257;55.082;38.772;2023-05-20T12:33:12;100782.00;;;16.20;44.95
71948;BME280;63257;55.082;38.772;2023-05-20T12:35:39;100775.53;;;16.24;44.39
71948;BME280;63257;55.082;38.772;2023-05-20T12:38:06;100779.00;;;16.39;44.85
71948;BME280;63257;55.082;38.772;2023-05-20T12:40:33;100773.03;;;16.35;44.04
71948;BME280;63257;55.082;38.772;2023-05-20T12:43:01;100783.16;;;16.43;43.21
71948;BME280;63257;55.082;38.772;2023-05-20T12:45:27;100772.94;;;16.22;42.92
71948;BME280;63257;55.082;38.772;2023-05-20T12:47:53;100784.25;;;16.26;42.20
71948;BME280;63257;55.082;38.772;2023-05-20T12:50:20;100774.13;;;16.45;42.17
71948;BME280;63257;55.082;38.772;2023-05-20T12:52:46;100780.63;;;16.69;42.16
71948;BME280;63257;55.082;38.772;2023-05-20T12:55:18;100785.69;;;16.73;42.29
71948;BME280;63257;55.082;38.772;2023-05-20T12:57:46;100782.72;;;16.63;42.38
71948;BME280;63257;55.082;38.772;2023-05-20T13:00:12;100785.91;;;16.56;42.25
71948;BME280;63257;55.082;38.772;2023-05-20T13:02:42;100787.34;;;16.47;42.45
71948;BME280;63257;55.082;38.772;2023-05-20T13:05:09;100769.91;;;16.28;42.28
71948;BME280;63257;55.082;38.772;2023-05-20T13:07:35;100782.44;;;16.41;40.91
71948;BME280;63257;55.082;38.772;2023-05-20T13:10:01;100754.81;;;16.15;40.26
71948;BME280;63257;55.082;38.772;2023-05-20T13:12:29;100715.66;;;15.88;39.77
71948;BME280;63257;55.082;38.772;2023-05-20T13:14:55;100769.06;;;16.28;40.47